Terminal Aerodrome Forecast
Issued by NWS Springfield, MO

Home | Current Version | Previous Version | Text Only | Print | Product List | Glossary On
Versions: 1 2 3 4 5 6 7 8 9 10 11 12 13 14 15 16 17 18 19 20 21 22 23 24
000
FTUS43 KSGF 250500
TAFSGF
TAF
KSGF 250538Z 2506/2606 23014KT P6SM OVC090 WS010/25040KT
     FM250800 24011KT P6SM VCSH SCT040 OVC070 WS020/30035KT
     FM251200 27010KT P6SM OVC040
     FM251500 31018G28KT P6SM OVC020 PROB30 2518/2524 -SHRA
     FM260000 34014G20KT P6SM OVC015=

USA.gov is the U.S. government's official web portal to all federal, state and local government web resources and services.